createdAt,value
2022-10-11T00:00:24.794Z,101482.98
2022-10-11T00:02:57.519Z,101485.52
2022-10-11T00:05:28.823Z,101489.73
2022-10-11T00:08:00.306Z,101494.28
2022-10-11T00:10:31.212Z,101500.85
2022-10-11T00:13:03.680Z,101498.72
2022-10-11T00:15:35.078Z,101500.87
2022-10-11T00:18:06.286Z,101507.06
2022-10-11T00:20:37.389Z,101506.13
2022-10-11T00:23:11.059Z,101509.45
2022-10-11T00:25:42.754Z,101510.48
2022-10-11T00:28:14.249Z,101512.73
2022-10-11T00:30:47.285Z,101512.80
2022-10-11T00:33:18.194Z,101517.90
2022-10-11T00:35:49.927Z,101523.63
2022-10-11T00:38:21.509Z,101523.16
2022-10-11T00:40:53.028Z,101524.05
2022-10-11T00:43:26.051Z,101524.68
2022-10-11T00:46:26.052Z,101528.59
2022-10-11T00:49:01.953Z,101525.11
2022-10-11T00:51:40.510Z,101529.52
2022-10-11T00:54:16.302Z,101529.10
2022-10-11T00:56:51.049Z,101529.00
2022-10-11T00:59:26.565Z,101527.55
2022-10-11T01:01:57.585Z,101529.83
2022-10-11T01:04:28.657Z,101530.55
2022-10-11T01:07:03.274Z,101534.76
2022-10-11T01:09:34.637Z,101535.45
2022-10-11T01:12:13.466Z,101534.48
2022-10-11T01:15:13.197Z,101534.45
2022-10-11T01:17:55.204Z,101535.60
2022-10-11T01:20:42.625Z,101538.17
2022-10-11T01:23:50.705Z,101540.38
2022-10-11T01:26:50.846Z,101547.02
2022-10-11T01:29:36.870Z,101548.91
2022-10-11T01:32:16.314Z,101542.58
2022-10-11T01:34:56.868Z,101546.52
2022-10-11T01:37:33.782Z,101547.09
2022-10-11T01:40:10.709Z,101546.77
2022-10-11T01:42:42.734Z,101553.10
2022-10-11T01:45:18.244Z,101553.48
2022-10-11T01:47:49.116Z,101552.05
2022-10-11T01:50:43.200Z,101553.80
2022-10-11T01:53:35.751Z,101556.36
2022-10-11T01:56:18.561Z,101559.14
2022-10-11T01:59:06.627Z,101557.39
2022-10-11T02:01:45.178Z,101561.52
2022-10-11T02:04:24.866Z,101563.89
2022-10-11T02:07:02.920Z,101565.11
2022-10-11T02:09:39.209Z,101564.50
2022-10-11T02:12:15.384Z,101569.69
2022-10-11T02:14:50.472Z,101570.56
2022-10-11T02:17:24.086Z,101575.32
2022-10-11T02:19:58.627Z,101573.38
2022-10-11T02:22:35.376Z,101576.59
2022-10-11T02:25:11.765Z,101577.48
2022-10-11T02:27:46.549Z,101581.54
2022-10-11T02:30:18.171Z,101582.20
2022-10-11T02:32:51.499Z,101584.16
2022-10-11T02:35:24.685Z,101585.74
2022-10-11T02:37:59.588Z,101583.80
2022-10-11T02:40:34.925Z,101590.06
2022-10-11T02:43:10.373Z,101591.70
2022-10-11T02:45:43.381Z,101591.03
2022-10-11T02:48:15.346Z,101596.20
2022-10-11T02:50:45.949Z,101598.73
2022-10-11T02:53:16.385Z,101597.47
2022-10-11T02:55:47.743Z,101596.82
2022-10-11T02:58:18.574Z,101599.77
2022-10-11T03:00:50.031Z,101604.52
2022-10-11T03:03:21.582Z,101604.73
2022-10-11T03:05:52.457Z,101606.84
2022-10-11T03:08:23.359Z,101607.04
2022-10-11T03:10:54.194Z,101608.65
2022-10-11T03:13:24.994Z,101612.60
2022-10-11T03:16:03.353Z,101610.45
2022-10-11T03:18:38.542Z,101615.80
2022-10-11T03:21:10.101Z,101615.22
2022-10-11T03:23:42.592Z,101616.69
2022-10-11T03:26:13.388Z,101623.16
2022-10-11T03:28:44.140Z,101628.10
2022-10-11T03:31:14.828Z,101634.50
2022-10-11T03:33:45.753Z,101635.89
2022-10-11T03:36:17.405Z,101636.41
2022-10-11T03:38:48.284Z,101639.40
2022-10-11T03:41:19.395Z,101640.59
2022-10-11T03:43:49.952Z,101642.27
2022-10-11T03:46:20.855Z,101643.98
2022-10-11T03:48:51.548Z,101650.73
2022-10-11T03:51:22.528Z,101653.04
2022-10-11T03:53:53.271Z,101652.77
2022-10-11T03:56:25.023Z,101652.42
2022-10-11T03:58:55.959Z,101656.52
2022-10-11T04:01:27.055Z,101658.87
2022-10-11T04:03:59.512Z,101659.85
2022-10-11T04:06:30.559Z,101662.84
2022-10-11T04:09:01.629Z,101667.56
2022-10-11T04:11:33.319Z,101671.64
2022-10-11T04:14:05.490Z,101676.76
2022-10-11T04:16:39.130Z,101674.51
2022-10-11T04:19:11.721Z,101676.44
2022-10-11T04:21:43.123Z,101679.10
2022-10-11T04:24:14.596Z,101682.90
2022-10-11T04:26:45.856Z,101684.64
2022-10-11T04:29:17.486Z,101689.91
2022-10-11T04:31:48.960Z,101689.33
2022-10-11T04:34:20.941Z,101689.80
2022-10-11T04:36:52.213Z,101692.22
2022-10-11T04:39:23.668Z,101700.35
2022-10-11T04:41:55.014Z,101701.16
2022-10-11T04:44:26.273Z,101701.33
2022-10-11T04:46:57.311Z,101710.85
2022-10-11T04:49:28.781Z,101710.02
2022-10-11T04:51:59.423Z,101715.23
2022-10-11T04:54:30.641Z,101716.52
2022-10-11T04:57:01.669Z,101717.50
2022-10-11T04:59:33.696Z,101724.00
2022-10-11T05:02:04.780Z,101722.56
2022-10-11T05:04:36.446Z,101728.17
2022-10-11T05:07:07.502Z,101733.34
2022-10-11T05:09:38.109Z,101739.12
2022-10-11T05:12:10.059Z,101738.06
2022-10-11T05:14:40.989Z,101741.45
2022-10-11T05:17:12.093Z,101744.76
2022-10-11T05:19:42.898Z,101744.73
2022-10-11T05:22:14.225Z,101748.22
2022-10-11T05:24:45.083Z,101744.84
2022-10-11T05:27:16.609Z,101747.98
2022-10-11T05:29:48.178Z,101753.23
2022-10-11T05:32:19.720Z,101755.09
2022-10-11T05:34:51.659Z,101760.15
2022-10-11T05:37:23.669Z,101760.21
2022-10-11T05:39:55.861Z,101760.20
2022-10-11T05:42:27.475Z,101764.38
2022-10-11T05:45:02.038Z,101763.95
2022-10-11T05:47:34.864Z,101765.89
2022-10-11T05:50:10.266Z,101773.27
2022-10-11T05:52:44.663Z,101778.49
2022-10-11T05:55:15.601Z,101781.86
2022-10-11T05:57:47.038Z,101787.09
2022-10-11T06:00:19.449Z,101782.58
2022-10-11T06:02:49.976Z,101789.25
2022-10-11T06:05:20.658Z,101789.96
2022-10-11T06:07:51.626Z,101789.36
2022-10-11T06:10:22.650Z,101788.61
2022-10-11T06:12:53.299Z,101791.54
2022-10-11T06:15:24.648Z,101799.45
2022-10-11T06:17:56.218Z,101802.96
2022-10-11T06:20:27.532Z,101802.16
2022-10-11T06:22:59.820Z,101806.48
2022-10-11T06:25:30.826Z,101808.31
2022-10-11T06:28:01.786Z,101814.79
2022-10-11T06:30:33.143Z,101815.99
2022-10-11T06:33:05.115Z,101814.66
2022-10-11T06:35:36.617Z,101821.57
2022-10-11T06:38:07.810Z,101822.64
2022-10-11T06:40:38.545Z,101822.55
2022-10-11T06:43:09.384Z,101830.56
2022-10-11T06:45:40.215Z,101829.98
2022-10-11T06:48:11.602Z,101833.81
2022-10-11T06:50:59.185Z,101836.36
2022-10-11T06:53:31.352Z,101836.36
2022-10-11T06:56:08.675Z,101842.14
2022-10-11T06:58:40.786Z,101843.45
2022-10-11T07:01:13.812Z,101844.14
2022-10-11T07:03:45.957Z,101849.98
2022-10-11T07:06:18.880Z,101848.52
2022-10-11T07:08:50.309Z,101844.55
2022-10-11T07:11:23.862Z,101848.56
2022-10-11T07:13:57.596Z,101850.61
2022-10-11T07:16:29.876Z,101856.10
2022-10-11T07:19:02.357Z,101858.45
2022-10-11T07:21:34.830Z,101862.98
2022-10-11T07:24:06.920Z,101864.05
2022-10-11T07:26:38.143Z,101867.09
2022-10-11T07:29:13.334Z,101872.06
2022-10-11T07:31:45.619Z,101872.11
2022-10-11T07:34:16.748Z,101871.29
2022-10-11T07:36:48.309Z,101882.02
2022-10-11T07:39:19.878Z,101885.39
2022-10-11T07:41:51.050Z,101887.66
2022-10-11T07:44:21.980Z,101886.66
2022-10-11T07:46:53.606Z,101889.75
2022-10-11T07:49:24.652Z,101889.61
2022-10-11T07:51:55.797Z,101890.64
2022-10-11T07:54:27.328Z,101887.17
2022-10-11T07:56:58.419Z,101889.40
2022-10-11T07:59:30.078Z,101886.79
2022-10-11T08:02:01.733Z,101887.52
2022-10-11T08:04:33.079Z,101893.98
2022-10-11T08:07:04.731Z,101895.86
2022-10-11T08:09:36.099Z,101900.91
2022-10-11T08:12:07.537Z,101903.19
2022-10-11T08:14:37.976Z,101902.98
2022-10-11T08:17:08.438Z,101905.17
2022-10-11T08:19:38.896Z,101906.55
2022-10-11T08:22:09.312Z,101906.88
2022-10-11T08:24:40.041Z,101907.33
2022-10-11T08:27:11.174Z,101910.64
2022-10-11T08:29:41.883Z,101913.20
2022-10-11T08:32:12.499Z,101919.05
2022-10-11T08:34:43.738Z,101915.92
2022-10-11T08:37:14.438Z,101917.70
2022-10-11T08:39:44.785Z,101919.43
2022-10-11T08:42:22.626Z,101918.20
2022-10-11T08:45:09.951Z,101919.23
2022-10-11T08:47:45.332Z,101924.63
2022-10-11T08:50:19.737Z,101925.20
2022-10-11T08:52:53.783Z,101928.75
2022-10-11T08:55:44.039Z,101928.34
2022-10-11T08:58:18.229Z,101928.95
2022-10-11T09:00:53.810Z,101931.37
2022-10-11T09:03:36.455Z,101925.42
2022-10-11T09:06:19.495Z,101927.16
2022-10-11T09:09:04.345Z,101926.95
2022-10-11T09:11:49.191Z,101932.68
2022-10-11T09:14:43.754Z,101932.91
2022-10-11T09:17:30.818Z,101930.15
2022-10-11T09:20:26.321Z,101936.70
2022-10-11T09:23:04.338Z,101931.73
2022-10-11T09:25:44.602Z,101932.93
2022-10-11T09:28:28.750Z,101934.25
2022-10-11T09:31:01.525Z,101935.13
2022-10-11T09:33:37.032Z,101934.32
2022-10-11T09:36:23.078Z,101931.64
2022-10-11T09:39:06.632Z,101933.33
2022-10-11T09:41:44.295Z,101934.07
2022-10-11T09:44:23.306Z,101938.04
2022-10-11T09:46:55.580Z,101939.08
2022-10-11T09:49:30.813Z,101935.31
2022-10-11T09:52:04.996Z,101932.19
2022-10-11T09:54:46.269Z,101935.55
2022-10-11T09:57:26.513Z,101934.08
2022-10-11T10:00:08.707Z,101933.71
2022-10-11T10:02:48.901Z,101936.89
2022-10-11T10:05:23.706Z,101937.69
2022-10-11T10:08:08.517Z,101930.44
2022-10-11T10:10:42.487Z,101935.82
2022-10-11T10:13:23.472Z,101935.59
2022-10-11T10:15:56.469Z,101937.30
2022-10-11T10:18:33.877Z,101937.56
2022-10-11T10:21:07.514Z,101941.20
2022-10-11T10:23:39.064Z,101940.55
2022-10-11T10:26:18.671Z,101940.77
2022-10-11T10:29:02.754Z,101941.33
2022-10-11T10:34:57.977Z,101943.42
2022-10-11T10:37:34.945Z,101940.13
2022-10-11T10:40:11.145Z,101944.38
2022-10-11T10:42:41.638Z,101943.45
2022-10-11T10:45:21.541Z,101946.31
2022-10-11T10:48:18.313Z,101946.67
2022-10-11T10:50:55.647Z,101939.46
2022-10-11T10:53:33.562Z,101940.43
2022-10-11T10:56:11.437Z,101939.19
2022-10-11T10:58:45.923Z,101942.56
2022-10-11T11:01:24.009Z,101939.75
2022-10-11T11:04:06.698Z,101938.45
2022-10-11T11:06:46.542Z,101936.73
2022-10-11T11:09:31.022Z,101938.05
2022-10-11T11:12:17.156Z,101939.11
2022-10-11T11:14:59.751Z,101938.96
2022-10-11T11:17:42.093Z,101935.00
2022-10-11T11:20:31.350Z,101934.27
2022-10-11T11:23:09.545Z,101934.87
2022-10-11T11:25:48.110Z,101933.01
2022-10-11T11:28:39.500Z,101937.26
2022-10-11T11:31:20.960Z,101937.48
2022-10-11T11:34:01.069Z,101935.66
2022-10-11T11:36:44.490Z,101931.80
2022-10-11T11:39:21.819Z,101932.17
2022-10-11T11:41:57.908Z,101932.16
2022-10-11T11:44:34.176Z,101929.59
2022-10-11T11:47:10.616Z,101926.11
2022-10-11T11:52:27.438Z,101922.96
2022-10-11T11:55:06.708Z,101926.16
2022-10-11T11:58:03.277Z,101924.32
2022-10-11T12:00:45.573Z,101918.91
2022-10-11T12:03:23.520Z,101918.23
2022-10-11T12:06:27.114Z,101918.75
2022-10-11T12:09:20.500Z,101919.05
2022-10-11T12:11:56.656Z,101917.58
2022-10-11T12:14:37.843Z,101918.22
2022-10-11T12:17:20.209Z,101914.16
2022-10-11T12:20:17.777Z,101912.86
2022-10-11T12:23:03.613Z,101908.95
2022-10-11T12:25:47.235Z,101915.69
2022-10-11T12:28:53.774Z,101920.14
2022-10-11T12:31:29.832Z,101907.88
2022-10-11T12:34:33.675Z,101911.67
2022-10-11T12:37:42.339Z,101907.30
2022-10-11T12:40:37.385Z,101914.14
2022-10-11T12:43:33.264Z,101912.12
2022-10-11T12:46:40.392Z,101913.71
2022-10-11T12:49:26.719Z,101914.45
2022-10-11T12:52:02.649Z,101915.40
2022-10-11T12:55:01.828Z,101912.98
2022-10-11T12:58:04.343Z,101907.83
2022-10-11T13:00:43.469Z,101907.97
2022-10-11T13:03:32.606Z,101909.01
2022-10-11T13:06:15.135Z,101909.05
2022-10-11T13:08:49.586Z,101905.35
2022-10-11T13:11:26.770Z,101907.41
2022-10-11T13:13:59.799Z,101910.15
2022-10-11T13:16:48.513Z,101908.02
2022-10-11T13:19:22.615Z,101908.89
2022-10-11T13:21:56.553Z,101907.00
2022-10-11T13:24:29.415Z,101907.05
2022-10-11T13:27:00.144Z,101905.73
2022-10-11T13:29:35.326Z,101903.46
2022-10-11T13:32:09.041Z,101904.13
2022-10-11T13:34:42.797Z,101905.66
2022-10-11T13:37:19.985Z,101901.05
2022-10-11T13:39:52.157Z,101900.45
2022-10-11T13:42:26.881Z,101900.64
2022-10-11T13:44:58.527Z,101903.55
2022-10-11T13:47:31.369Z,101903.27
2022-10-11T13:50:19.532Z,101900.70
2022-10-11T13:52:59.584Z,101899.40
2022-10-11T13:55:33.563Z,101896.20
2022-10-11T13:58:14.958Z,101897.48
2022-10-11T14:00:57.231Z,101900.33
2022-10-11T14:03:39.872Z,101899.48
2022-10-11T14:06:10.741Z,101897.63
2022-10-11T14:08:47.274Z,101892.91
2022-10-11T14:11:33.096Z,101894.19
2022-10-11T14:14:23.453Z,101892.92
2022-10-11T14:17:00.376Z,101892.66
2022-10-11T14:19:31.336Z,101894.48
2022-10-11T14:22:01.663Z,101894.52
2022-10-11T14:24:33.394Z,101892.94
2022-10-11T14:27:07.309Z,101894.70
2022-10-11T14:29:41.961Z,101890.28
2022-10-11T14:32:16.028Z,101892.82
2022-10-11T14:34:48.967Z,101892.08
2022-10-11T14:37:20.606Z,101895.44
2022-10-11T14:39:51.384Z,101894.20
2022-10-11T14:42:22.302Z,101893.77
2022-10-11T14:44:53.161Z,101886.80
2022-10-11T14:47:23.783Z,101889.45
2022-10-11T14:49:54.277Z,101891.02
2022-10-11T14:52:24.618Z,101891.77
2022-10-11T14:54:55.242Z,101892.23
2022-10-11T14:57:26.359Z,101893.50
2022-10-11T14:59:57.068Z,101892.30
2022-10-11T15:02:27.772Z,101897.03
2022-10-11T15:04:58.128Z,101897.90
2022-10-11T15:07:28.742Z,101890.95
2022-10-11T15:09:59.233Z,101897.52
2022-10-11T15:12:30.172Z,101898.16
2022-10-11T15:15:01.106Z,101901.07
2022-10-11T15:17:31.994Z,101901.12
2022-10-11T15:20:03.098Z,101898.89
2022-10-11T15:22:33.828Z,101896.55
2022-10-11T15:25:05.265Z,101896.58
2022-10-11T15:27:38.813Z,101893.29
2022-10-11T15:30:20.424Z,101894.90
2022-10-11T15:32:52.042Z,101893.52
2022-10-11T15:35:24.855Z,101892.20
2022-10-11T15:37:58.636Z,101886.46
2022-10-11T15:40:31.828Z,101890.30
2022-10-11T15:43:03.134Z,101890.44
2022-10-11T15:45:34.065Z,101890.85
2022-10-11T15:48:05.022Z,101893.64
2022-10-11T15:50:38.039Z,101893.26
2022-10-11T15:53:10.828Z,101893.00
2022-10-11T15:55:43.709Z,101899.08
2022-10-11T15:58:16.484Z,101898.13
2022-10-11T16:00:49.297Z,101899.39
2022-10-11T16:03:21.907Z,101901.55
2022-10-11T16:05:52.981Z,101899.83
2022-10-11T16:08:23.922Z,101899.67
2022-10-11T16:10:55.241Z,101899.20
2022-10-11T16:13:25.736Z,101899.51
2022-10-11T16:15:56.789Z,101904.96
2022-10-11T16:18:31.257Z,101903.59
2022-10-11T16:21:09.631Z,101906.74
2022-10-11T16:23:41.546Z,101908.15
2022-10-11T16:26:16.329Z,101906.73
2022-10-11T16:28:47.894Z,101913.83
2022-10-11T16:31:21.039Z,101912.33
2022-10-11T16:33:52.955Z,101912.01
2022-10-11T16:36:36.987Z,101910.98
2022-10-11T16:39:11.814Z,101910.11
2022-10-11T16:41:43.289Z,101909.02
2022-10-11T16:44:17.436Z,101914.35
2022-10-11T16:46:49.439Z,101918.41
2022-10-11T16:49:22.494Z,101918.71
2022-10-11T16:51:59.133Z,101918.58
2022-10-11T16:54:30.533Z,101918.34
2022-10-11T16:57:01.172Z,101923.06
2022-10-11T16:59:32.489Z,101920.79
2022-10-11T17:02:05.112Z,101921.17
2022-10-11T17:04:35.682Z,101922.60
2022-10-11T17:07:12.188Z,101923.39
2022-10-11T17:09:44.424Z,101925.64
2022-10-11T17:12:18.131Z,101922.11
2022-10-11T17:14:49.948Z,101919.97
2022-10-11T17:17:21.721Z,101919.83
2022-10-11T17:19:52.461Z,101921.14
2022-10-11T17:22:23.047Z,101922.40
2022-10-11T17:24:54.041Z,101916.34
2022-10-11T17:27:24.505Z,101921.60
2022-10-11T17:29:55.494Z,101918.73
2022-10-11T17:32:26.214Z,101917.10
2022-10-11T17:34:57.431Z,101916.81
2022-10-11T17:37:27.877Z,101915.12
2022-10-11T17:39:58.317Z,101920.79
2022-10-11T17:42:29.472Z,101921.65
2022-10-11T17:45:00.275Z,101924.61
2022-10-11T17:47:31.155Z,101926.98
2022-10-11T17:50:01.716Z,101926.95
2022-10-11T17:52:32.933Z,101927.27
2022-10-11T17:55:03.627Z,101925.38
2022-10-11T17:57:34.461Z,101927.06
2022-10-11T18:00:06.087Z,101924.46
2022-10-11T18:02:38.605Z,101919.69
2022-10-11T18:05:14.255Z,101920.02
2022-10-11T18:07:45.005Z,101917.35
2022-10-11T18:10:15.569Z,101911.48
2022-10-11T18:12:46.665Z,101913.23
2022-10-11T18:15:17.120Z,101914.43
2022-10-11T18:17:48.424Z,101916.52
2022-10-11T18:20:19.263Z,101916.92
2022-10-11T18:22:50.131Z,101919.43
2022-10-11T18:25:21.324Z,101918.83
2022-10-11T18:27:53.735Z,101918.29
2022-10-11T18:30:25.813Z,101919.30
2022-10-11T18:33:00.018Z,101918.93
2022-10-11T18:35:42.746Z,101921.11
2022-10-11T18:38:14.779Z,101923.93
2022-10-11T18:40:50.466Z,101922.52
2022-10-11T18:43:22.860Z,101918.98
2022-10-11T18:46:04.344Z,101918.52
2022-10-11T18:48:37.974Z,101912.55
2022-10-11T18:51:22.736Z,101914.08
2022-10-11T18:53:55.946Z,101915.40
2022-10-11T18:56:32.818Z,101914.19
2022-10-11T18:59:05.455Z,101913.02
2022-10-11T19:01:39.986Z,101910.73
2022-10-11T19:04:17.796Z,101911.78
2022-10-11T19:06:53.429Z,101914.77
2022-10-11T19:09:33.340Z,101915.94
2022-10-11T19:12:13.891Z,101913.88
2022-10-11T19:14:52.110Z,101914.86
2022-10-11T19:17:26.969Z,101910.05
2022-10-11T19:20:01.910Z,101909.90
2022-10-11T19:22:34.519Z,101909.27
2022-10-11T19:25:19.356Z,101909.62
2022-10-11T19:27:55.536Z,101907.95
2022-10-11T19:30:34.533Z,101904.36
2022-10-11T19:33:07.392Z,101905.20
2022-10-11T19:35:43.992Z,101906.20
2022-10-11T19:38:16.087Z,101905.36
2022-10-11T19:40:48.669Z,101906.02
2022-10-11T19:43:25.008Z,101902.44
2022-10-11T19:46:05.181Z,101904.54
2022-10-11T19:48:44.487Z,101907.37
2022-10-11T19:51:19.113Z,101910.63
2022-10-11T19:53:57.271Z,101907.58
2022-10-11T19:56:33.723Z,101904.23
2022-10-11T19:59:08.241Z,101910.48
2022-10-11T20:01:42.041Z,101909.75
2022-10-11T20:04:33.558Z,101913.37
2022-10-11T20:07:13.199Z,101910.80
2022-10-11T20:09:49.444Z,101913.14
2022-10-11T20:12:22.592Z,101911.20
2022-10-11T20:14:54.808Z,101909.58
2022-10-11T20:17:48.508Z,101906.80
2022-10-11T20:20:26.070Z,101905.20
2022-10-11T20:23:03.499Z,101902.82
2022-10-11T20:25:36.529Z,101904.90
2022-10-11T20:28:09.452Z,101904.95
2022-10-11T20:30:55.851Z,101906.16
2022-10-11T20:33:36.096Z,101902.55
2022-10-11T20:36:17.365Z,101905.91
2022-10-11T20:38:53.945Z,101906.14
2022-10-11T20:41:33.669Z,101905.27
2022-10-11T20:44:06.995Z,101904.81
2022-10-11T20:46:41.226Z,101904.88
2022-10-11T20:49:16.826Z,101905.27
2022-10-11T20:51:51.101Z,101905.52
2022-10-11T20:54:27.042Z,101915.30
2022-10-11T20:57:00.877Z,101912.28
2022-10-11T20:59:34.176Z,101913.25
2022-10-11T21:02:13.413Z,101912.04
2022-10-11T21:04:54.465Z,101915.76
2022-10-11T21:07:30.312Z,101919.31
2022-10-11T21:10:07.569Z,101916.01
2022-10-11T21:12:39.544Z,101921.07
2022-10-11T21:15:20.425Z,101926.63
2022-10-11T21:17:59.290Z,101930.80
2022-10-11T21:20:32.617Z,101926.23
2022-10-11T21:23:05.963Z,101928.05
2022-10-11T21:25:39.864Z,101926.59
2022-10-11T21:28:11.534Z,101925.40
2022-10-11T21:30:43.108Z,101924.27
2022-10-11T21:33:16.876Z,101924.77
2022-10-11T21:35:48.355Z,101926.06
2022-10-11T21:38:20.797Z,101920.71
2022-10-11T21:40:52.037Z,101918.08
2022-10-11T21:43:25.209Z,101914.54
2022-10-11T21:45:59.936Z,101920.54
2022-10-11T21:48:33.149Z,101920.66
2022-10-11T21:51:05.894Z,101921.98
2022-10-11T21:53:38.203Z,101917.23
2022-10-11T21:56:10.372Z,101919.03
2022-10-11T21:58:42.110Z,101919.06
2022-10-11T22:01:13.825Z,101915.27
2022-10-11T22:03:45.995Z,101914.83
2022-10-11T22:06:18.894Z,101916.65
2022-10-11T22:08:51.640Z,101914.70
2022-10-11T22:11:23.730Z,101916.21
2022-10-11T22:13:55.399Z,101913.53
2022-10-11T22:16:27.539Z,101910.51
2022-10-11T22:19:00.276Z,101915.34
2022-10-11T22:21:31.945Z,101916.33
2022-10-11T22:24:03.475Z,101916.35
2022-10-11T22:26:38.902Z,101918.60
2022-10-11T22:29:10.360Z,101916.81
2022-10-11T22:31:42.440Z,101916.27
2022-10-11T22:34:13.837Z,101918.23
2022-10-11T22:36:46.361Z,101918.44
2022-10-11T22:39:18.628Z,101915.27
2022-10-11T22:41:50.397Z,101908.22
2022-10-11T22:44:22.828Z,101908.29
2022-10-11T22:46:54.038Z,101908.44
2022-10-11T22:49:26.199Z,101907.25
2022-10-11T22:51:57.884Z,101910.31
2022-10-11T22:54:29.767Z,101909.41
2022-10-11T22:57:02.766Z,101910.70
2022-10-11T22:59:34.249Z,101910.87
2022-10-11T23:02:05.901Z,101912.27
2022-10-11T23:04:37.922Z,101910.05
2022-10-11T23:07:09.471Z,101910.63
2022-10-11T23:09:40.876Z,101907.05
2022-10-11T23:12:12.307Z,101905.89
2022-10-11T23:14:43.533Z,101905.21
2022-10-11T23:17:15.258Z,101906.54
2022-10-11T23:19:47.403Z,101907.76
2022-10-11T23:22:20.200Z,101907.20
2022-10-11T23:24:51.964Z,101910.55
2022-10-11T23:27:24.009Z,101912.94
2022-10-11T23:29:55.359Z,101912.64
2022-10-11T23:32:26.813Z,101918.10
2022-10-11T23:34:58.181Z,101918.47
2022-10-11T23:37:29.488Z,101923.65
2022-10-11T23:40:01.335Z,101927.18
2022-10-11T23:42:33.914Z,101928.59
2022-10-11T23:45:05.949Z,101928.85
2022-10-11T23:47:39.180Z,101929.96
2022-10-11T23:50:11.698Z,101925.72
2022-10-11T23:52:45.045Z,101926.27
2022-10-11T23:55:16.203Z,101932.02
2022-10-11T23:57:47.537Z,101932.30
